sensor_id;sensor_type;location;lat;lon;timestamp;P1;durP1;ratioP1;P2;durP2;ratioP2
18544;SDS011;9402;51.460;7.276;2023-12-20T00:01:23;37.20;;;19.80;;
18544;SDS011;9402;51.460;7.276;2023-12-20T00:03:25;38.53;;;19.45;;
18544;SDS011;9402;51.460;7.276;2023-12-20T00:05:26;54.97;;;23.50;;
18544;SDS011;9402;51.460;7.276;2023-12-20T00:07:29;36.50;;;20.77;;
18544;SDS011;9402;51.460;7.276;2023-12-20T00:09:31;42.78;;;20.55;;
18544;SDS011;9402;51.460;7.276;2023-12-20T00:11:32;37.38;;;20.77;;
18544;SDS011;9402;51.460;7.276;2023-12-20T00:13:34;41.97;;;20.20;;
18544;SDS011;9402;51.460;7.276;2023-12-20T00:15:34;51.67;;;22.43;;
18544;SDS011;9402;51.460;7.276;2023-12-20T00:17:36;53.28;;;22.20;;
18544;SDS011;9402;51.460;7.276;2023-12-20T00:19:38;47.15;;;22.55;;
18544;SDS011;9402;51.460;7.276;2023-12-20T00:21:39;53.45;;;23.65;;
18544;SDS011;9402;51.460;7.276;2023-12-20T00:23:42;37.00;;;21.45;;
18544;SDS011;9402;51.460;7.276;2023-12-20T00:25:43;50.08;;;25.85;;
18544;SDS011;9402;51.460;7.276;2023-12-20T00:27:44;46.72;;;25.50;;
18544;SDS011;9402;51.460;7.276;2023-12-20T00:29:46;49.35;;;26.13;;
18544;SDS011;9402;51.460;7.276;2023-12-20T00:31:50;50.22;;;26.08;;
18544;SDS011;9402;51.460;7.276;2023-12-20T00:33:51;49.30;;;25.63;;
18544;SDS011;9402;51.460;7.276;2023-12-20T00:35:53;58.38;;;28.65;;
18544;SDS011;9402;51.460;7.276;2023-12-20T00:37:54;52.40;;;26.35;;
18544;SDS011;9402;51.460;7.276;2023-12-20T00:39:57;59.95;;;25.25;;
18544;SDS011;9402;51.460;7.276;2023-12-20T00:41:59;40.95;;;23.10;;
18544;SDS011;9402;51.460;7.276;2023-12-20T00:44:00;82.57;;;27.83;;
18544;SDS011;9402;51.460;7.276;2023-12-20T00:46:03;49.25;;;25.05;;
18544;SDS011;9402;51.460;7.276;2023-12-20T00:48:04;60.22;;;25.50;;
18544;SDS011;9402;51.460;7.276;2023-12-20T00:50:07;42.35;;;22.50;;
18544;SDS011;9402;51.460;7.276;2023-12-20T00:52:09;53.88;;;21.98;;
18544;SDS011;9402;51.460;7.276;2023-12-20T00:54:11;46.55;;;19.80;;
18544;SDS011;9402;51.460;7.276;2023-12-20T00:56:13;55.72;;;21.15;;
18544;SDS011;9402;51.460;7.276;2023-12-20T00:58:14;38.38;;;18.60;;
18544;SDS011;9402;51.460;7.276;2023-12-20T01:00:17;27.55;;;15.65;;
18544;SDS011;9402;51.460;7.276;2023-12-20T01:02:19;38.83;;;17.33;;
18544;SDS011;9402;51.460;7.276;2023-12-20T01:04:20;37.58;;;16.33;;
18544;SDS011;9402;51.460;7.276;2023-12-20T01:06:22;34.58;;;16.27;;
18544;SDS011;9402;51.460;7.276;2023-12-20T01:08:23;30.23;;;14.43;;
18544;SDS011;9402;51.460;7.276;2023-12-20T01:10:24;29.23;;;14.68;;
18544;SDS011;9402;51.460;7.276;2023-12-20T01:12:29;31.58;;;12.98;;
18544;SDS011;9402;51.460;7.276;2023-12-20T01:14:31;36.88;;;13.88;;
18544;SDS011;9402;51.460;7.276;2023-12-20T01:16:32;31.88;;;14.35;;
18544;SDS011;9402;51.460;7.276;2023-12-20T01:18:34;34.17;;;12.30;;
18544;SDS011;9402;51.460;7.276;2023-12-20T01:20:35;28.75;;;13.90;;
18544;SDS011;9402;51.460;7.276;2023-12-20T01:22:37;29.77;;;13.18;;
18544;SDS011;9402;51.460;7.276;2023-12-20T01:24:38;33.17;;;13.98;;
18544;SDS011;9402;51.460;7.276;2023-12-20T01:26:40;42.42;;;14.48;;
18544;SDS011;9402;51.460;7.276;2023-12-20T01:28:43;33.60;;;12.90;;
18544;SDS011;9402;51.460;7.276;2023-12-20T01:30:45;28.55;;;12.55;;
18544;SDS011;9402;51.460;7.276;2023-12-20T01:32:47;23.83;;;10.75;;
18544;SDS011;9402;51.460;7.276;2023-12-20T01:34:48;26.65;;;12.18;;
18544;SDS011;9402;51.460;7.276;2023-12-20T01:36:50;25.67;;;11.30;;
18544;SDS011;9402;51.460;7.276;2023-12-20T01:38:51;28.50;;;11.73;;
18544;SDS011;9402;51.460;7.276;2023-12-20T01:40:53;30.45;;;13.30;;
18544;SDS011;9402;51.460;7.276;2023-12-20T01:42:58;25.13;;;10.18;;
18544;SDS011;9402;51.460;7.276;2023-12-20T01:45:00;38.20;;;12.05;;
18544;SDS011;9402;51.460;7.276;2023-12-20T01:47:02;22.67;;;10.90;;
18544;SDS011;9402;51.460;7.276;2023-12-20T01:49:04;35.30;;;10.07;;
18544;SDS011;9402;51.460;7.276;2023-12-20T01:51:05;16.27;;;9.77;;
18544;SDS011;9402;51.460;7.276;2023-12-20T01:53:07;28.45;;;10.68;;
18544;SDS011;9402;51.460;7.276;2023-12-20T01:55:09;26.75;;;10.00;;
18544;SDS011;9402;51.460;7.276;2023-12-20T01:57:13;25.33;;;10.98;;
18544;SDS011;9402;51.460;7.276;2023-12-20T01:59:15;21.25;;;10.80;;
18544;SDS011;9402;51.460;7.276;2023-12-20T02:01:18;20.55;;;10.25;;
18544;SDS011;9402;51.460;7.276;2023-12-20T02:03:19;20.17;;;9.77;;
18544;SDS011;9402;51.460;7.276;2023-12-20T02:05:22;26.88;;;9.55;;
18544;SDS011;9402;51.460;7.276;2023-12-20T02:07:23;32.80;;;9.90;;
18544;SDS011;9402;51.460;7.276;2023-12-20T02:09:25;22.05;;;7.40;;
18544;SDS011;9402;51.460;7.276;2023-12-20T02:11:28;24.85;;;8.90;;
18544;SDS011;9402;51.460;7.276;2023-12-20T02:13:29;27.80;;;8.67;;
18544;SDS011;9402;51.460;7.276;2023-12-20T02:15:31;36.15;;;9.20;;
18544;SDS011;9402;51.460;7.276;2023-12-20T02:17:34;18.90;;;8.10;;
18544;SDS011;9402;51.460;7.276;2023-12-20T02:19:35;16.55;;;7.32;;
18544;SDS011;9402;51.460;7.276;2023-12-20T02:21:38;17.95;;;6.88;;
18544;SDS011;9402;51.460;7.276;2023-12-20T02:23:40;25.13;;;7.25;;
18544;SDS011;9402;51.460;7.276;2023-12-20T02:25:41;26.67;;;8.27;;
18544;SDS011;9402;51.460;7.276;2023-12-20T02:27:43;14.32;;;6.28;;
18544;SDS011;9402;51.460;7.276;2023-12-20T02:29:46;24.45;;;7.80;;
18544;SDS011;9402;51.460;7.276;2023-12-20T02:31:48;32.03;;;10.20;;
18544;SDS011;9402;51.460;7.276;2023-12-20T02:33:49;17.30;;;8.25;;
18544;SDS011;9402;51.460;7.276;2023-12-20T02:35:51;20.05;;;8.52;;
18544;SDS011;9402;51.460;7.276;2023-12-20T02:37:54;18.75;;;9.40;;
18544;SDS011;9402;51.460;7.276;2023-12-20T02:39:55;26.02;;;9.05;;
18544;SDS011;9402;51.460;7.276;2023-12-20T02:41:57;26.70;;;11.10;;
18544;SDS011;9402;51.460;7.276;2023-12-20T02:43:58;26.65;;;12.23;;
18544;SDS011;9402;51.460;7.276;2023-12-20T02:46:00;22.90;;;11.57;;
18544;SDS011;9402;51.460;7.276;2023-12-20T02:48:02;31.60;;;12.75;;
18544;SDS011;9402;51.460;7.276;2023-12-20T02:50:04;27.20;;;12.25;;
18544;SDS011;9402;51.460;7.276;2023-12-20T02:52:06;27.02;;;11.25;;
18544;SDS011;9402;51.460;7.276;2023-12-20T02:54:09;31.10;;;13.50;;
18544;SDS011;9402;51.460;7.276;2023-12-20T02:56:11;24.25;;;11.18;;
18544;SDS011;9402;51.460;7.276;2023-12-20T02:58:13;27.67;;;11.95;;
18544;SDS011;9402;51.460;7.276;2023-12-20T03:00:15;25.70;;;11.13;;
18544;SDS011;9402;51.460;7.276;2023-12-20T03:02:17;23.83;;;12.52;;
18544;SDS011;9402;51.460;7.276;2023-12-20T03:04:18;27.15;;;10.85;;
18544;SDS011;9402;51.460;7.276;2023-12-20T03:06:19;25.80;;;10.37;;
18544;SDS011;9402;51.460;7.276;2023-12-20T03:08:20;30.60;;;12.70;;
18544;SDS011;9402;51.460;7.276;2023-12-20T03:10:22;23.00;;;11.90;;
18544;SDS011;9402;51.460;7.276;2023-12-20T03:12:24;26.48;;;10.93;;
18544;SDS011;9402;51.460;7.276;2023-12-20T03:14:26;26.42;;;11.23;;
18544;SDS011;9402;51.460;7.276;2023-12-20T03:16:27;23.35;;;11.10;;
18544;SDS011;9402;51.460;7.276;2023-12-20T03:18:29;23.88;;;11.60;;
18544;SDS011;9402;51.460;7.276;2023-12-20T03:20:30;32.97;;;11.80;;
18544;SDS011;9402;51.460;7.276;2023-12-20T03:22:34;30.23;;;12.65;;
18544;SDS011;9402;51.460;7.276;2023-12-20T03:24:35;33.38;;;10.40;;
18544;SDS011;9402;51.460;7.276;2023-12-20T03:26:38;38.50;;;11.40;;
18544;SDS011;9402;51.460;7.276;2023-12-20T03:28:40;23.98;;;10.95;;
18544;SDS011;9402;51.460;7.276;2023-12-20T03:30:41;33.22;;;13.05;;
18544;SDS011;9402;51.460;7.276;2023-12-20T03:32:43;26.60;;;12.30;;
18544;SDS011;9402;51.460;7.276;2023-12-20T03:34:45;24.88;;;10.80;;
18544;SDS011;9402;51.460;7.276;2023-12-20T03:36:48;24.17;;;11.13;;
18544;SDS011;9402;51.460;7.276;2023-12-20T03:38:49;24.52;;;9.70;;
18544;SDS011;9402;51.460;7.276;2023-12-20T03:40:51;23.08;;;9.82;;
18544;SDS011;9402;51.460;7.276;2023-12-20T03:42:54;26.27;;;10.38;;
18544;SDS011;9402;51.460;7.276;2023-12-20T03:44:56;20.92;;;10.73;;
18544;SDS011;9402;51.460;7.276;2023-12-20T03:46:57;26.60;;;8.25;;
18544;SDS011;9402;51.460;7.276;2023-12-20T03:48:59;22.20;;;9.20;;
18544;SDS011;9402;51.460;7.276;2023-12-20T03:51:00;32.15;;;10.18;;
18544;SDS011;9402;51.460;7.276;2023-12-20T03:53:02;35.17;;;9.60;;
18544;SDS011;9402;51.460;7.276;2023-12-20T03:55:04;29.83;;;9.85;;
18544;SDS011;9402;51.460;7.276;2023-12-20T03:57:06;37.95;;;10.15;;
18544;SDS011;9402;51.460;7.276;2023-12-20T03:59:09;30.15;;;9.35;;
18544;SDS011;9402;51.460;7.276;2023-12-20T04:01:11;21.13;;;7.90;;
18544;SDS011;9402;51.460;7.276;2023-12-20T04:03:12;35.75;;;9.95;;
18544;SDS011;9402;51.460;7.276;2023-12-20T04:05:13;29.00;;;8.37;;
18544;SDS011;9402;51.460;7.276;2023-12-20T04:07:15;28.73;;;9.30;;
18544;SDS011;9402;51.460;7.276;2023-12-20T04:09:16;22.02;;;7.60;;
18544;SDS011;9402;51.460;7.276;2023-12-20T04:11:18;27.60;;;9.07;;
18544;SDS011;9402;51.460;7.276;2023-12-20T04:13:19;21.38;;;8.10;;
18544;SDS011;9402;51.460;7.276;2023-12-20T04:15:22;27.13;;;8.63;;
18544;SDS011;9402;51.460;7.276;2023-12-20T04:17:23;19.58;;;8.60;;
18544;SDS011;9402;51.460;7.276;2023-12-20T04:19:24;21.88;;;7.35;;
18544;SDS011;9402;51.460;7.276;2023-12-20T04:21:26;17.95;;;6.85;;
18544;SDS011;9402;51.460;7.276;2023-12-20T04:23:28;25.75;;;7.75;;
18544;SDS011;9402;51.460;7.276;2023-12-20T04:25:29;27.95;;;8.30;;
18544;SDS011;9402;51.460;7.276;2023-12-20T04:27:30;38.00;;;10.20;;
18544;SDS011;9402;51.460;7.276;2023-12-20T04:29:31;23.67;;;8.55;;
18544;SDS011;9402;51.460;7.276;2023-12-20T04:31:34;25.33;;;10.70;;
18544;SDS011;9402;51.460;7.276;2023-12-20T04:33:36;34.95;;;9.25;;
18544;SDS011;9402;51.460;7.276;2023-12-20T04:35:37;35.53;;;10.45;;
18544;SDS011;9402;51.460;7.276;2023-12-20T04:37:40;27.35;;;10.07;;
18544;SDS011;9402;51.460;7.276;2023-12-20T04:39:42;30.70;;;9.40;;
18544;SDS011;9402;51.460;7.276;2023-12-20T04:41:42;29.80;;;9.87;;
18544;SDS011;9402;51.460;7.276;2023-12-20T04:43:44;34.85;;;11.07;;
18544;SDS011;9402;51.460;7.276;2023-12-20T04:45:45;27.38;;;10.13;;
18544;SDS011;9402;51.460;7.276;2023-12-20T04:47:48;39.10;;;10.57;;
18544;SDS011;9402;51.460;7.276;2023-12-20T04:49:50;26.15;;;9.90;;
18544;SDS011;9402;51.460;7.276;2023-12-20T04:51:51;34.03;;;10.80;;
18544;SDS011;9402;51.460;7.276;2023-12-20T04:53:52;34.13;;;8.90;;
18544;SDS011;9402;51.460;7.276;2023-12-20T04:55:54;25.48;;;7.90;;
18544;SDS011;9402;51.460;7.276;2023-12-20T04:57:55;42.45;;;10.70;;
18544;SDS011;9402;51.460;7.276;2023-12-20T04:59:56;27.87;;;8.73;;
18544;SDS011;9402;51.460;7.276;2023-12-20T05:01:58;25.45;;;9.95;;
18544;SDS011;9402;51.460;7.276;2023-12-20T05:04:01;24.02;;;9.45;;
18544;SDS011;9402;51.460;7.276;2023-12-20T05:06:02;24.08;;;7.88;;
18544;SDS011;9402;51.460;7.276;2023-12-20T05:08:05;31.58;;;9.48;;
18544;SDS011;9402;51.460;7.276;2023-12-20T05:10:06;25.75;;;9.23;;
18544;SDS011;9402;51.460;7.276;2023-12-20T05:12:09;19.98;;;7.90;;
18544;SDS011;9402;51.460;7.276;2023-12-20T05:14:10;35.58;;;10.13;;
18544;SDS011;9402;51.460;7.276;2023-12-20T05:16:12;30.25;;;9.60;;
18544;SDS011;9402;51.460;7.276;2023-12-20T05:18:14;33.53;;;9.13;;
18544;SDS011;9402;51.460;7.276;2023-12-20T05:20:17;25.13;;;9.52;;
18544;SDS011;9402;51.460;7.276;2023-12-20T05:22:18;34.45;;;8.80;;
18544;SDS011;9402;51.460;7.276;2023-12-20T05:24:20;20.17;;;9.18;;
18544;SDS011;9402;51.460;7.276;2023-12-20T05:26:21;39.95;;;10.75;;
18544;SDS011;9402;51.460;7.276;2023-12-20T05:28:22;36.40;;;9.37;;
18544;SDS011;9402;51.460;7.276;2023-12-20T05:30:23;31.20;;;10.35;;
18544;SDS011;9402;51.460;7.276;2023-12-20T05:32:25;19.45;;;8.18;;
18544;SDS011;9402;51.460;7.276;2023-12-20T05:34:26;29.00;;;10.27;;
18544;SDS011;9402;51.460;7.276;2023-12-20T05:36:29;23.30;;;10.32;;
18544;SDS011;9402;51.460;7.276;2023-12-20T05:38:30;23.25;;;10.15;;
18544;SDS011;9402;51.460;7.276;2023-12-20T05:40:32;28.60;;;10.00;;
18544;SDS011;9402;51.460;7.276;2023-12-20T05:42:34;20.48;;;8.80;;
18544;SDS011;9402;51.460;7.276;2023-12-20T05:44:35;20.48;;;8.23;;
18544;SDS011;9402;51.460;7.276;2023-12-20T05:46:36;43.47;;;11.23;;
18544;SDS011;9402;51.460;7.276;2023-12-20T05:48:38;23.98;;;9.38;;
18544;SDS011;9402;51.460;7.276;2023-12-20T05:50:39;25.17;;;9.88;;
18544;SDS011;9402;51.460;7.276;2023-12-20T05:52:42;34.53;;;9.40;;
18544;SDS011;9402;51.460;7.276;2023-12-20T05:54:44;32.22;;;10.80;;
18544;SDS011;9402;51.460;7.276;2023-12-20T05:56:45;22.63;;;9.45;;
18544;SDS011;9402;51.460;7.276;2023-12-20T05:58:47;30.55;;;9.00;;
18544;SDS011;9402;51.460;7.276;2023-12-20T06:00:48;35.17;;;9.90;;
18544;SDS011;9402;51.460;7.276;2023-12-20T06:02:50;33.10;;;9.70;;
18544;SDS011;9402;51.460;7.276;2023-12-20T06:04:51;31.77;;;9.63;;
18544;SDS011;9402;51.460;7.276;2023-12-20T06:06:53;40.40;;;10.50;;
18544;SDS011;9402;51.460;7.276;2023-12-20T06:08:56;41.83;;;12.07;;
18544;SDS011;9402;51.460;7.276;2023-12-20T06:10:57;29.67;;;11.10;;
18544;SDS011;9402;51.460;7.276;2023-12-20T06:12:59;41.95;;;12.00;;
18544;SDS011;9402;51.460;7.276;2023-12-20T06:15:01;23.30;;;10.05;;
18544;SDS011;9402;51.460;7.276;2023-12-20T06:17:02;43.93;;;13.00;;
18544;SDS011;9402;51.460;7.276;2023-12-20T06:19:03;26.95;;;12.00;;
18544;SDS011;9402;51.460;7.276;2023-12-20T06:21:05;36.80;;;11.88;;
18544;SDS011;9402;51.460;7.276;2023-12-20T06:23:08;41.70;;;13.43;;
18544;SDS011;9402;51.460;7.276;2023-12-20T06:25:10;29.90;;;13.10;;
18544;SDS011;9402;51.460;7.276;2023-12-20T06:27:12;29.50;;;11.80;;
18544;SDS011;9402;51.460;7.276;2023-12-20T06:29:14;38.13;;;11.63;;
18544;SDS011;9402;51.460;7.276;2023-12-20T06:31:15;33.25;;;11.27;;
18544;SDS011;9402;51.460;7.276;2023-12-20T06:33:17;38.40;;;11.48;;
18544;SDS011;9402;51.460;7.276;2023-12-20T06:35:18;30.55;;;11.98;;
18544;SDS011;9402;51.460;7.276;2023-12-20T06:37:19;32.73;;;12.87;;
18544;SDS011;9402;51.460;7.276;2023-12-20T06:39:21;40.67;;;14.77;;
18544;SDS011;9402;51.460;7.276;2023-12-20T06:41:24;36.13;;;11.00;;
18544;SDS011;9402;51.460;7.276;2023-12-20T06:43:25;26.67;;;9.55;;
18544;SDS011;9402;51.460;7.276;2023-12-20T06:45:27;33.63;;;11.82;;
18544;SDS011;9402;51.460;7.276;2023-12-20T06:47:27;23.07;;;10.20;;
18544;SDS011;9402;51.460;7.276;2023-12-20T06:49:29;30.92;;;11.82;;
18544;SDS011;9402;51.460;7.276;2023-12-20T06:51:31;39.17;;;10.50;;
18544;SDS011;9402;51.460;7.276;2023-12-20T06:53:32;25.33;;;10.15;;
18544;SDS011;9402;51.460;7.276;2023-12-20T06:55:33;44.13;;;11.53;;
18544;SDS011;9402;51.460;7.276;2023-12-20T06:57:36;30.00;;;9.30;;
18544;SDS011;9402;51.460;7.276;2023-12-20T06:59:38;29.67;;;10.20;;
18544;SDS011;9402;51.460;7.276;2023-12-20T07:01:40;28.83;;;10.45;;
18544;SDS011;9402;51.460;7.276;2023-12-20T07:03:41;23.90;;;9.30;;
18544;SDS011;9402;51.460;7.276;2023-12-20T07:05:43;24.77;;;9.75;;
18544;SDS011;9402;51.460;7.276;2023-12-20T07:07:44;28.77;;;9.30;;
18544;SDS011;9402;51.460;7.276;2023-12-20T07:09:46;32.38;;;11.77;;
18544;SDS011;9402;51.460;7.276;2023-12-20T07:11:48;35.30;;;10.27;;
18544;SDS011;9402;51.460;7.276;2023-12-20T07:13:50;35.70;;;10.50;;
18544;SDS011;9402;51.460;7.276;2023-12-20T07:15:51;29.73;;;9.50;;
18544;SDS011;9402;51.460;7.276;2023-12-20T07:17:53;26.25;;;9.80;;
18544;SDS011;9402;51.460;7.276;2023-12-20T07:19:54;20.17;;;7.82;;
18544;SDS011;9402;51.460;7.276;2023-12-20T07:21:55;38.63;;;9.60;;
18544;SDS011;9402;51.460;7.276;2023-12-20T07:23:56;26.25;;;9.35;;
18544;SDS011;9402;51.460;7.276;2023-12-20T07:25:57;28.97;;;9.60;;
18544;SDS011;9402;51.460;7.276;2023-12-20T07:27:59;22.27;;;9.30;;
18544;SDS011;9402;51.460;7.276;2023-12-20T07:30:01;35.67;;;9.33;;
18544;SDS011;9402;51.460;7.276;2023-12-20T07:32:02;27.48;;;8.63;;
18544;SDS011;9402;51.460;7.276;2023-12-20T07:34:04;31.63;;;9.10;;
18544;SDS011;9402;51.460;7.276;2023-12-20T07:36:06;31.40;;;8.43;;
18544;SDS011;9402;51.460;7.276;2023-12-20T07:38:08;33.53;;;8.80;;
18544;SDS011;9402;51.460;7.276;2023-12-20T07:40:10;29.85;;;8.43;;
18544;SDS011;9402;51.460;7.276;2023-12-20T07:42:12;29.35;;;8.05;;
18544;SDS011;9402;51.460;7.276;2023-12-20T07:44:13;26.30;;;8.30;;
18544;SDS011;9402;51.460;7.276;2023-12-20T07:46:17;17.08;;;7.28;;
18544;SDS011;9402;51.460;7.276;2023-12-20T07:48:22;38.65;;;10.07;;
18544;SDS011;9402;51.460;7.276;2023-12-20T07:50:24;30.27;;;9.77;;
18544;SDS011;9402;51.460;7.276;2023-12-20T07:52:24;26.97;;;9.80;;
18544;SDS011;9402;51.460;7.276;2023-12-20T07:54:27;28.02;;;9.45;;
18544;SDS011;9402;51.460;7.276;2023-12-20T07:56:28;29.75;;;9.57;;
18544;SDS011;9402;51.460;7.276;2023-12-20T07:58:30;26.88;;;8.80;;
18544;SDS011;9402;51.460;7.276;2023-12-20T08:00:31;17.13;;;8.20;;
18544;SDS011;9402;51.460;7.276;2023-12-20T08:02:34;34.95;;;9.05;;
18544;SDS011;9402;51.460;7.276;2023-12-20T08:04:36;22.15;;;7.55;;
18544;SDS011;9402;51.460;7.276;2023-12-20T08:06:36;24.03;;;8.50;;
18544;SDS011;9402;51.460;7.276;2023-12-20T08:08:38;33.00;;;9.20;;
18544;SDS011;9402;51.460;7.276;2023-12-20T08:10:39;24.73;;;8.02;;
18544;SDS011;9402;51.460;7.276;2023-12-20T08:12:41;20.70;;;8.00;;
18544;SDS011;9402;51.460;7.276;2023-12-20T08:14:41;37.37;;;8.00;;
18544;SDS011;9402;51.460;7.276;2023-12-20T08:16:43;17.38;;;7.38;;
18544;SDS011;9402;51.460;7.276;2023-12-20T08:18:46;24.23;;;8.57;;
18544;SDS011;9402;51.460;7.276;2023-12-20T08:20:48;25.65;;;8.00;;
18544;SDS011;9402;51.460;7.276;2023-12-20T08:22:50;29.13;;;9.07;;
18544;SDS011;9402;51.460;7.276;2023-12-20T08:24:51;27.30;;;8.48;;
18544;SDS011;9402;51.460;7.276;2023-12-20T08:26:53;26.90;;;6.90;;
18544;SDS011;9402;51.460;7.276;2023-12-20T08:28:54;43.53;;;9.18;;
18544;SDS011;9402;51.460;7.276;2023-12-20T08:30:56;23.30;;;8.35;;
18544;SDS011;9402;51.460;7.276;2023-12-20T08:32:59;25.70;;;9.07;;
18544;SDS011;9402;51.460;7.276;2023-12-20T08:35:01;27.00;;;7.93;;
18544;SDS011;9402;51.460;7.276;2023-12-20T08:37:03;42.15;;;8.88;;
18544;SDS011;9402;51.460;7.276;2023-12-20T08:39:05;25.45;;;7.90;;
18544;SDS011;9402;51.460;7.276;2023-12-20T08:41:07;27.38;;;7.85;;
18544;SDS011;9402;51.460;7.276;2023-12-20T08:43:09;40.65;;;8.63;;
18544;SDS011;9402;51.460;7.276;2023-12-20T08:45:10;23.27;;;6.80;;
18544;SDS011;9402;51.460;7.276;2023-12-20T08:47:12;22.95;;;7.93;;
18544;SDS011;9402;51.460;7.276;2023-12-20T08:49:15;19.42;;;6.63;;
18544;SDS011;9402;51.460;7.276;2023-12-20T08:51:18;22.50;;;7.07;;
18544;SDS011;9402;51.460;7.276;2023-12-20T08:53:20;29.95;;;8.07;;
18544;SDS011;9402;51.460;7.276;2023-12-20T08:55:22;35.05;;;8.23;;
18544;SDS011;9402;51.460;7.276;2023-12-20T08:57:23;20.02;;;6.72;;
18544;SDS011;9402;51.460;7.276;2023-12-20T08:59:25;31.75;;;7.45;;
18544;SDS011;9402;51.460;7.276;2023-12-20T09:01:26;29.73;;;7.10;;
18544;SDS011;9402;51.460;7.276;2023-12-20T09:03:28;27.88;;;7.45;;
18544;SDS011;9402;51.460;7.276;2023-12-20T09:05:29;25.27;;;7.30;;
18544;SDS011;9402;51.460;7.276;2023-12-20T09:07:33;14.80;;;6.47;;
18544;SDS011;9402;51.460;7.276;2023-12-20T09:09:34;20.27;;;6.72;;
18544;SDS011;9402;51.460;7.276;2023-12-20T09:11:36;26.77;;;8.90;;
18544;SDS011;9402;51.460;7.276;2023-12-20T09:13:38;28.25;;;7.30;;
18544;SDS011;9402;51.460;7.276;2023-12-20T09:15:39;16.83;;;6.72;;
18544;SDS011;9402;51.460;7.276;2023-12-20T09:17:41;42.88;;;8.55;;
18544;SDS011;9402;51.460;7.276;2023-12-20T09:19:43;25.65;;;5.80;;
18544;SDS011;9402;51.460;7.276;2023-12-20T09:21:45;20.40;;;6.28;;
18544;SDS011;9402;51.460;7.276;2023-12-20T09:23:48;28.20;;;6.50;;
18544;SDS011;9402;51.460;7.276;2023-12-20T09:25:50;21.58;;;7.03;;
18544;SDS011;9402;51.460;7.276;2023-12-20T09:27:51;34.25;;;7.15;;
18544;SDS011;9402;51.460;7.276;2023-12-20T09:29:53;23.67;;;5.60;;
18544;SDS011;9402;51.460;7.276;2023-12-20T09:31:54;21.35;;;5.53;;
18544;SDS011;9402;51.460;7.276;2023-12-20T09:33:57;20.15;;;5.75;;
18544;SDS011;9402;51.460;7.276;2023-12-20T09:35:58;22.52;;;5.70;;
18544;SDS011;9402;51.460;7.276;2023-12-20T09:37:59;31.07;;;6.67;;
18544;SDS011;9402;51.460;7.276;2023-12-20T09:40:02;23.45;;;6.18;;
18544;SDS011;9402;51.460;7.276;2023-12-20T09:42:05;22.92;;;5.13;;
18544;SDS011;9402;51.460;7.276;2023-12-20T09:44:07;17.95;;;5.15;;
18544;SDS011;9402;51.460;7.276;2023-12-20T09:46:08;36.33;;;5.97;;
18544;SDS011;9402;51.460;7.276;2023-12-20T09:48:11;19.52;;;5.00;;
18544;SDS011;9402;51.460;7.276;2023-12-20T09:50:14;21.27;;;6.20;;
18544;SDS011;9402;51.460;7.276;2023-12-20T09:52:16;22.15;;;5.78;;
18544;SDS011;9402;51.460;7.276;2023-12-20T09:54:18;26.05;;;6.45;;
18544;SDS011;9402;51.460;7.276;2023-12-20T09:56:21;22.25;;;5.55;;
18544;SDS011;9402;51.460;7.276;2023-12-20T09:58:23;19.55;;;5.05;;
18544;SDS011;9402;51.460;7.276;2023-12-20T10:00:24;39.35;;;7.05;;
18544;SDS011;9402;51.460;7.276;2023-12-20T10:02:26;18.52;;;5.18;;
18544;SDS011;9402;51.460;7.276;2023-12-20T10:04:28;30.85;;;5.80;;
18544;SDS011;9402;51.460;7.276;2023-12-20T10:06:33;16.33;;;4.80;;
18544;SDS011;9402;51.460;7.276;2023-12-20T10:08:34;14.45;;;4.50;;
18544;SDS011;9402;51.460;7.276;2023-12-20T10:10:36;30.75;;;5.43;;
18544;SDS011;9402;51.460;7.276;2023-12-20T10:12:39;25.30;;;6.10;;
18544;SDS011;9402;51.460;7.276;2023-12-20T10:14:40;19.92;;;6.03;;
18544;SDS011;9402;51.460;7.276;2023-12-20T10:16:42;26.50;;;5.53;;
18544;SDS011;9402;51.460;7.276;2023-12-20T10:18:44;23.52;;;5.55;;
18544;SDS011;9402;51.460;7.276;2023-12-20T10:20:47;21.25;;;6.65;;
18544;SDS011;9402;51.460;7.276;2023-12-20T10:22:48;14.45;;;4.68;;
18544;SDS011;9402;51.460;7.276;2023-12-20T10:24:53;20.70;;;5.95;;
18544;SDS011;9402;51.460;7.276;2023-12-20T10:27:01;17.45;;;4.85;;
18544;SDS011;9402;51.460;7.276;2023-12-20T10:29:05;15.85;;;5.20;;
18544;SDS011;9402;51.460;7.276;2023-12-20T10:31:07;21.90;;;5.60;;
18544;SDS011;9402;51.460;7.276;2023-12-20T10:33:07;25.30;;;5.73;;
18544;SDS011;9402;51.460;7.276;2023-12-20T10:35:09;24.58;;;5.50;;
18544;SDS011;9402;51.460;7.276;2023-12-20T10:37:11;25.60;;;5.78;;
18544;SDS011;9402;51.460;7.276;2023-12-20T10:39:11;21.47;;;5.23;;
18544;SDS011;9402;51.460;7.276;2023-12-20T10:41:15;15.32;;;5.45;;
18544;SDS011;9402;51.460;7.276;2023-12-20T10:43:17;27.08;;;5.90;;
18544;SDS011;9402;51.460;7.276;2023-12-20T10:45:21;16.55;;;5.53;;
18544;SDS011;9402;51.460;7.276;2023-12-20T10:47:24;16.05;;;5.70;;
18544;SDS011;9402;51.460;7.276;2023-12-20T10:49:26;19.13;;;5.68;;
18544;SDS011;9402;51.460;7.276;2023-12-20T10:51:28;35.08;;;6.70;;
18544;SDS011;9402;51.460;7.276;2023-12-20T10:53:30;23.40;;;5.10;;
18544;SDS011;9402;51.460;7.276;2023-12-20T10:55:32;17.30;;;5.60;;
18544;SDS011;9402;51.460;7.276;2023-12-20T10:57:34;26.75;;;5.57;;
18544;SDS011;9402;51.460;7.276;2023-12-20T10:59:37;31.23;;;6.35;;
18544;SDS011;9402;51.460;7.276;2023-12-20T11:01:40;22.58;;;6.30;;
18544;SDS011;9402;51.460;7.276;2023-12-20T11:03:43;24.00;;;5.25;;
18544;SDS011;9402;51.460;7.276;2023-12-20T11:05:48;18.75;;;5.35;;
18544;SDS011;9402;51.460;7.276;2023-12-20T11:07:54;36.30;;;5.93;;
18544;SDS011;9402;51.460;7.276;2023-12-20T11:10:00;34.05;;;6.80;;
18544;SDS011;9402;51.460;7.276;2023-12-20T11:12:06;19.25;;;6.20;;
18544;SDS011;9402;51.460;7.276;2023-12-20T11:14:13;21.92;;;5.22;;
18544;SDS011;9402;51.460;7.276;2023-12-20T11:16:17;26.10;;;6.45;;
18544;SDS011;9402;51.460;7.276;2023-12-20T11:18:20;17.55;;;5.97;;
18544;SDS011;9402;51.460;7.276;2023-12-20T11:20:35;22.10;;;4.95;;
18544;SDS011;9402;51.460;7.276;2023-12-20T11:22:37;20.83;;;6.38;;
18544;SDS011;9402;51.460;7.276;2023-12-20T11:24:44;18.77;;;6.55;;
18544;SDS011;9402;51.460;7.276;2023-12-20T11:26:46;20.40;;;5.65;;
18544;SDS011;9402;51.460;7.276;2023-12-20T11:28:48;19.50;;;5.00;;
18544;SDS011;9402;51.460;7.276;2023-12-20T11:30:51;20.75;;;5.90;;
18544;SDS011;9402;51.460;7.276;2023-12-20T11:32:52;19.13;;;5.05;;
18544;SDS011;9402;51.460;7.276;2023-12-20T11:34:56;22.52;;;6.22;;
18544;SDS011;9402;51.460;7.276;2023-12-20T11:36:59;24.77;;;5.78;;
18544;SDS011;9402;51.460;7.276;2023-12-20T11:39:01;10.93;;;5.25;;
18544;SDS011;9402;51.460;7.276;2023-12-20T11:41:08;25.83;;;6.43;;
18544;SDS011;9402;51.460;7.276;2023-12-20T11:43:12;23.45;;;6.07;;
18544;SDS011;9402;51.460;7.276;2023-12-20T11:45:30;17.58;;;5.85;;
18544;SDS011;9402;51.460;7.276;2023-12-20T11:47:32;18.13;;;5.93;;
18544;SDS011;9402;51.460;7.276;2023-12-20T11:49:35;29.70;;;5.75;;
18544;SDS011;9402;51.460;7.276;2023-12-20T11:51:41;20.65;;;6.00;;
18544;SDS011;9402;51.460;7.276;2023-12-20T11:53:43;16.77;;;4.82;;
18544;SDS011;9402;51.460;7.276;2023-12-20T11:55:47;22.92;;;5.32;;
18544;SDS011;9402;51.460;7.276;2023-12-20T11:57:47;21.52;;;7.28;;
18544;SDS011;9402;51.460;7.276;2023-12-20T11:59:49;20.08;;;5.55;;
18544;SDS011;9402;51.460;7.276;2023-12-20T12:01:50;24.58;;;7.63;;
18544;SDS011;9402;51.460;7.276;2023-12-20T12:04:01;23.10;;;6.90;;
18544;SDS011;9402;51.460;7.276;2023-12-20T12:06:04;21.95;;;7.40;;
18544;SDS011;9402;51.460;7.276;2023-12-20T12:08:06;24.85;;;7.70;;
18544;SDS011;9402;51.460;7.276;2023-12-20T12:10:08;25.80;;;8.38;;
18544;SDS011;9402;51.460;7.276;2023-12-20T12:12:09;19.60;;;7.17;;